createdAt,value
2018-03-19T00:00:11.024Z,51.43
2018-03-19T00:02:05.306Z,51.15
2018-03-19T00:03:05.284Z,51.15
2018-03-19T00:04:58.605Z,51.15
2018-03-19T00:05:58.536Z,50.96
2018-03-19T00:07:51.875Z,51.25
2018-03-19T00:08:51.829Z,50.87
2018-03-19T00:10:45.174Z,50.78
2018-03-19T00:11:45.106Z,51.15
2018-03-19T00:13:39.392Z,51.62
2018-03-19T00:14:39.338Z,52.38
2018-03-19T00:16:32.671Z,51.25
2018-03-19T00:17:32.595Z,50.87
2018-03-19T00:19:25.909Z,51.06
2018-03-19T00:20:25.890Z,50.78
2018-03-19T00:22:19.178Z,51.72
2018-03-19T00:23:19.110Z,51.53
2018-03-19T00:25:12.635Z,51.53
2018-03-19T00:26:12.457Z,51.43
2018-03-19T00:28:05.776Z,51.62
2018-03-19T00:29:05.735Z,52.10
2018-03-19T00:30:59.021Z,51.53
2018-03-19T00:31:58.956Z,51.62
2018-03-19T00:33:52.252Z,51.91
2018-03-19T00:34:52.211Z,51.72
2018-03-19T00:36:45.530Z,51.53
2018-03-19T00:37:45.466Z,51.32
2018-03-19T00:39:38.798Z,51.62
2018-03-19T00:40:38.735Z,52.26
2018-03-19T00:42:32.138Z,51.98
2018-03-19T00:43:32.061Z,51.88
2018-03-19T00:45:25.362Z,52.64
2018-03-19T00:46:25.312Z,51.79
2018-03-19T00:48:18.622Z,52.07
2018-03-19T00:49:18.558Z,51.88
2018-03-19T00:51:11.857Z,53.02
2018-03-19T00:52:11.823Z,53.20
2018-03-19T00:54:05.160Z,53.30
2018-03-19T00:55:05.083Z,52.92
2018-03-19T00:56:58.453Z,52.36
2018-03-19T00:57:58.332Z,53.11
2018-03-19T00:59:51.652Z,53.20
2018-03-19T01:00:51.572Z,53.20
2018-03-19T01:02:45.076Z,53.49
2018-03-19T01:03:45.102Z,53.49
2018-03-19T01:05:38.361Z,53.30
2018-03-19T01:06:38.287Z,53.77
2018-03-19T01:08:31.603Z,53.39
2018-03-19T01:09:31.529Z,53.39
2018-03-19T01:11:24.819Z,53.39
2018-03-19T01:12:24.781Z,53.87
2018-03-19T01:14:18.121Z,54.34
2018-03-19T01:15:18.026Z,53.49
2018-03-19T01:17:11.316Z,53.77
2018-03-19T01:18:11.268Z,54.34
2018-03-19T01:20:05.566Z,54.25
2018-03-19T01:21:05.511Z,53.96
2018-03-19T01:22:58.819Z,54.53
2018-03-19T01:23:58.767Z,54.53
2018-03-19T01:25:52.072Z,55.57
2018-03-19T01:26:52.014Z,55.00
2018-03-19T01:28:45.296Z,54.72
2018-03-19T01:29:45.261Z,55.47
2018-03-19T01:31:38.612Z,55.10
2018-03-19T01:32:38.522Z,54.91
2018-03-19T01:34:31.818Z,55.19
2018-03-19T01:35:31.767Z,55.38
2018-03-19T01:37:25.088Z,55.38
2018-03-19T01:38:25.016Z,55.26
2018-03-19T01:40:18.337Z,55.35
2018-03-19T01:41:18.262Z,55.10
2018-03-19T01:43:11.576Z,55.29
2018-03-19T01:44:11.528Z,55.38
2018-03-19T01:46:04.821Z,55.35
2018-03-19T01:47:04.772Z,55.63
2018-03-19T01:48:58.282Z,55.63
2018-03-19T01:49:58.162Z,55.63
2018-03-19T01:51:51.497Z,56.20
2018-03-19T01:52:51.439Z,56.77
2018-03-19T01:54:44.729Z,56.30
2018-03-19T01:55:44.671Z,55.92
2018-03-19T01:57:37.987Z,55.73
2018-03-19T01:58:37.941Z,55.92
2018-03-19T02:00:31.222Z,55.92
2018-03-19T02:01:31.252Z,55.92
2018-03-19T02:03:24.501Z,55.92
2018-03-19T02:04:24.433Z,55.73
2018-03-19T02:06:17.777Z,55.54
2018-03-19T02:07:17.729Z,55.44
2018-03-19T02:09:11.050Z,55.54
2018-03-19T02:10:11.008Z,55.73
2018-03-19T02:12:04.313Z,55.92
2018-03-19T02:13:04.231Z,56.39
2018-03-19T02:14:57.524Z,56.11
2018-03-19T02:15:57.476Z,56.01
2018-03-19T02:17:50.808Z,55.73
2018-03-19T02:18:50.734Z,56.30
2018-03-19T02:20:44.022Z,56.30
2018-03-19T02:21:43.980Z,56.30
2018-03-19T02:23:37.284Z,56.20
2018-03-19T02:24:37.224Z,56.30
2018-03-19T02:26:30.624Z,56.42
2018-03-19T02:27:30.501Z,55.92
2018-03-19T02:29:23.981Z,56.13
2018-03-19T02:30:23.742Z,56.23
2018-03-19T02:32:17.029Z,55.92
2018-03-19T02:33:16.984Z,56.04
2018-03-19T02:35:11.505Z,56.13
2018-03-19T02:36:11.428Z,56.23
2018-03-19T02:38:04.784Z,56.04
2018-03-19T02:39:04.663Z,56.13
2018-03-19T02:40:57.979Z,56.70
2018-03-19T02:41:57.912Z,56.51
2018-03-19T02:43:51.217Z,56.13
2018-03-19T02:44:51.167Z,55.57
2018-03-19T02:46:45.463Z,55.29
2018-03-19T02:47:45.422Z,55.10
2018-03-19T02:49:38.713Z,55.57
2018-03-19T02:50:38.638Z,55.29
2018-03-19T02:52:32.055Z,55.57
2018-03-19T02:53:31.879Z,55.57
2018-03-19T02:55:25.208Z,55.38
2018-03-19T02:56:25.133Z,55.73
2018-03-19T02:58:18.423Z,56.11
2018-03-19T02:59:18.409Z,56.11
2018-03-19T03:01:11.686Z,55.73
2018-03-19T03:02:11.623Z,55.54
2018-03-19T03:04:04.928Z,55.16
2018-03-19T03:05:04.875Z,55.54
2018-03-19T03:06:58.199Z,55.44
2018-03-19T03:07:58.169Z,55.54
2018-03-19T03:09:51.474Z,55.73
2018-03-19T03:10:51.368Z,56.20
2018-03-19T03:12:44.688Z,56.01
2018-03-19T03:13:44.624Z,55.73
2018-03-19T03:15:37.934Z,55.92
2018-03-19T03:16:37.884Z,55.94
2018-03-19T03:18:31.302Z,56.11
2018-03-19T03:19:31.128Z,56.04
2018-03-19T03:21:24.429Z,56.32
2018-03-19T03:22:24.369Z,56.23
2018-03-19T03:24:17.673Z,56.11
2018-03-19T03:25:17.625Z,56.01
2018-03-19T03:27:10.936Z,56.11
2018-03-19T03:28:10.872Z,56.11
2018-03-19T03:30:04.165Z,55.92
2018-03-19T03:31:04.116Z,56.30
2018-03-19T03:32:57.405Z,56.01
2018-03-19T03:33:57.360Z,56.30
2018-03-19T03:35:50.704Z,56.01
2018-03-19T03:36:50.641Z,56.20
2018-03-19T03:38:43.914Z,56.01
2018-03-19T03:39:43.879Z,56.11
2018-03-19T03:41:37.185Z,56.11
2018-03-19T03:42:37.117Z,56.48
2018-03-19T03:44:31.423Z,56.48
2018-03-19T03:45:31.383Z,56.67
2018-03-19T03:47:24.684Z,56.48
2018-03-19T03:48:24.621Z,55.94
2018-03-19T03:50:18.025Z,56.20
2018-03-19T03:51:17.868Z,56.30
2018-03-19T03:53:11.168Z,56.77
2018-03-19T03:54:11.108Z,56.48
2018-03-19T03:56:04.396Z,55.82
2018-03-19T03:57:04.364Z,56.77
2018-03-19T03:58:58.665Z,56.67
2018-03-19T03:59:58.586Z,56.01
2018-03-19T04:01:51.900Z,55.92
2018-03-19T04:02:51.860Z,55.82
2018-03-19T04:04:45.130Z,56.11
2018-03-19T04:05:45.084Z,55.63
2018-03-19T04:07:39.478Z,55.16
2018-03-19T04:08:39.363Z,55.44
2018-03-19T04:10:32.651Z,55.54
2018-03-19T04:11:32.667Z,55.63
2018-03-19T04:13:25.921Z,55.92
2018-03-19T04:14:25.873Z,55.82
2018-03-19T04:16:19.163Z,55.94
2018-03-19T04:17:19.126Z,56.48
2018-03-19T04:19:12.420Z,56.32
2018-03-19T04:20:12.454Z,56.01
2018-03-19T04:22:06.651Z,56.01
2018-03-19T04:23:06.619Z,55.63
2018-03-19T04:24:59.921Z,55.26
2018-03-19T04:25:59.865Z,55.63
2018-03-19T04:27:53.145Z,56.01
2018-03-19T04:28:53.100Z,56.39
2018-03-19T04:30:47.481Z,56.20
2018-03-19T04:31:47.369Z,55.92
2018-03-19T04:33:40.696Z,56.11
2018-03-19T04:34:40.605Z,56.30
2018-03-19T04:36:33.926Z,55.54
2018-03-19T04:37:33.859Z,55.44
2018-03-19T04:39:27.237Z,55.82
2018-03-19T04:40:27.094Z,56.23
2018-03-19T04:42:20.390Z,55.63
2018-03-19T04:43:20.356Z,55.54
2018-03-19T04:45:13.661Z,55.63
2018-03-19T04:46:13.595Z,55.54
2018-03-19T04:48:07.086Z,55.54
2018-03-19T04:49:06.946Z,56.20
2018-03-19T04:51:00.359Z,55.82
2018-03-19T04:52:00.195Z,55.63
2018-03-19T04:53:53.476Z,56.20
2018-03-19T04:54:53.426Z,55.73
2018-03-19T04:56:47.076Z,56.01
2018-03-19T04:57:46.735Z,56.20
2018-03-19T04:59:40.005Z,56.39
2018-03-19T05:00:40.046Z,56.20
2018-03-19T05:02:33.269Z,55.63
2018-03-19T05:03:33.209Z,56.11
2018-03-19T05:05:26.515Z,56.30
2018-03-19T05:06:26.454Z,56.11
2018-03-19T05:08:19.741Z,56.30
2018-03-19T05:09:19.696Z,56.01
2018-03-19T05:11:13.067Z,56.11
2018-03-19T05:12:12.953Z,56.20
2018-03-19T05:14:06.237Z,56.11
2018-03-19T05:15:06.211Z,56.20
2018-03-19T05:16:59.512Z,56.48
2018-03-19T05:17:59.446Z,56.39
2018-03-19T05:19:52.732Z,56.58
2018-03-19T05:20:52.682Z,56.67
2018-03-19T05:22:45.994Z,56.48
2018-03-19T05:23:45.936Z,57.24
2018-03-19T05:25:39.221Z,56.96
2018-03-19T05:26:39.175Z,56.58
2018-03-19T05:28:32.526Z,57.24
2018-03-19T05:29:32.437Z,56.96
2018-03-19T05:31:25.731Z,56.58
2018-03-19T05:32:25.711Z,56.48
2018-03-19T05:34:18.992Z,56.39
2018-03-19T05:35:18.935Z,55.92
2018-03-19T05:37:12.726Z,56.01
2018-03-19T05:38:12.185Z,56.39
2018-03-19T05:40:05.473Z,56.58
2018-03-19T05:41:05.418Z,56.86
2018-03-19T05:42:58.761Z,56.67
2018-03-19T05:43:58.655Z,55.92
2018-03-19T05:45:51.947Z,56.01
2018-03-19T05:46:51.906Z,56.58
2018-03-19T05:48:45.232Z,56.20
2018-03-19T05:49:45.142Z,56.11
2018-03-19T05:51:38.517Z,56.48
2018-03-19T05:52:38.418Z,56.67
2018-03-19T05:54:31.711Z,56.58
2018-03-19T05:55:31.653Z,56.86
2018-03-19T05:57:24.931Z,56.77
2018-03-19T05:58:24.881Z,56.58
2018-03-19T06:00:18.211Z,57.05
2018-03-19T06:01:18.133Z,57.05
2018-03-19T06:03:11.458Z,56.96
2018-03-19T06:04:11.377Z,56.77
2018-03-19T06:06:04.710Z,56.20
2018-03-19T06:07:04.646Z,56.20
2018-03-19T06:08:57.952Z,56.20
2018-03-19T06:09:57.893Z,56.77
2018-03-19T06:11:51.176Z,56.67
2018-03-19T06:12:51.261Z,56.67
2018-03-19T06:14:44.494Z,56.20
2018-03-19T06:15:44.377Z,56.48
2018-03-19T06:17:37.791Z,56.20
2018-03-19T06:18:37.622Z,56.77
2018-03-19T06:20:31.920Z,56.77
2018-03-19T06:21:31.858Z,56.86
2018-03-19T06:23:25.163Z,56.39
2018-03-19T06:24:25.111Z,57.24
2018-03-19T06:26:18.448Z,57.24
2018-03-19T06:27:18.362Z,56.96
2018-03-19T06:29:12.953Z,57.34
2018-03-19T06:30:12.613Z,56.96
2018-03-19T06:32:05.929Z,56.99
2018-03-19T06:33:05.872Z,56.13
2018-03-19T06:34:59.170Z,56.04
2018-03-19T06:35:59.125Z,56.23
2018-03-19T06:37:52.408Z,56.04
2018-03-19T06:38:52.354Z,56.51
2018-03-19T06:40:45.882Z,56.04
2018-03-19T06:41:45.708Z,56.11
2018-03-19T06:43:38.991Z,56.86
2018-03-19T06:44:38.958Z,56.80
2018-03-19T06:46:32.257Z,56.89
2018-03-19T06:47:32.196Z,55.85
2018-03-19T06:49:25.544Z,55.82
2018-03-19T06:50:25.500Z,56.11
2018-03-19T06:52:18.812Z,56.99
2018-03-19T06:53:18.742Z,56.99
2018-03-19T06:55:12.072Z,57.27
2018-03-19T06:56:12.025Z,56.51
2018-03-19T06:58:05.313Z,56.04
2018-03-19T06:59:05.249Z,56.70
2018-03-19T07:00:58.581Z,56.51
2018-03-19T07:01:58.502Z,55.85
2018-03-19T07:03:51.785Z,56.13
2018-03-19T07:04:51.732Z,55.94
2018-03-19T07:06:45.044Z,55.47
2018-03-19T07:07:44.982Z,55.76
2018-03-19T07:09:38.273Z,56.13
2018-03-19T07:10:38.238Z,55.57
2018-03-19T07:12:31.630Z,55.38
2018-03-19T07:13:31.503Z,55.76
2018-03-19T07:15:24.917Z,55.76
2018-03-19T07:16:24.774Z,56.04
2018-03-19T07:18:18.102Z,55.66
2018-03-19T07:19:18.089Z,55.85
2018-03-19T07:21:11.437Z,56.23
2018-03-19T07:22:11.343Z,55.66
2018-03-19T07:24:05.519Z,55.76
2018-03-19T07:25:05.552Z,55.29
2018-03-19T07:26:58.919Z,55.29
2018-03-19T07:27:58.819Z,54.91
2018-03-19T07:29:52.142Z,55.47
2018-03-19T07:30:52.046Z,55.29
2018-03-19T07:32:46.225Z,54.93
2018-03-19T07:33:46.184Z,55.38
2018-03-19T07:35:39.538Z,55.29
2018-03-19T07:36:39.484Z,55.47
2018-03-19T07:38:33.377Z,55.85
2018-03-19T07:39:32.888Z,55.76
2018-03-19T07:41:26.150Z,55.94
2018-03-19T07:42:26.139Z,55.66
2018-03-19T07:44:19.488Z,55.66
2018-03-19T07:45:19.458Z,55.50
2018-03-19T07:47:13.397Z,55.22
2018-03-19T07:48:12.772Z,54.93
2018-03-19T07:50:06.540Z,55.31
2018-03-19T07:51:06.371Z,54.93
2018-03-19T07:52:59.624Z,54.08
2018-03-19T07:53:59.608Z,54.44
2018-03-19T07:55:52.979Z,54.53
2018-03-19T07:56:52.914Z,54.55
2018-03-19T07:58:46.373Z,54.44
2018-03-19T07:59:46.241Z,54.81
2018-03-19T08:01:39.559Z,54.72
2018-03-19T08:02:39.518Z,55.69
2018-03-19T08:04:32.904Z,54.62
2018-03-19T08:05:32.848Z,54.44
2018-03-19T08:07:26.175Z,54.53
2018-03-19T08:08:26.102Z,54.34
2018-03-19T08:10:19.481Z,55.29
2018-03-19T08:11:19.390Z,54.81
2018-03-19T08:13:12.724Z,54.55
2018-03-19T08:14:12.684Z,54.55
2018-03-19T08:16:06.073Z,54.55
2018-03-19T08:17:05.974Z,54.65
2018-03-19T08:18:59.423Z,53.52
2018-03-19T08:19:59.325Z,53.80
2018-03-19T08:21:52.639Z,53.61
2018-03-19T08:22:52.636Z,53.42
2018-03-19T08:24:45.931Z,53.61
2018-03-19T08:25:45.850Z,53.42
2018-03-19T08:27:39.189Z,53.89
2018-03-19T08:28:39.123Z,53.89
2018-03-19T08:30:32.551Z,53.23
2018-03-19T08:31:32.500Z,53.42
2018-03-19T08:33:25.805Z,53.61
2018-03-19T08:34:25.731Z,53.61
2018-03-19T08:36:19.139Z,53.61
2018-03-19T08:37:19.048Z,52.88
2018-03-19T08:39:12.404Z,53.14
2018-03-19T08:40:12.329Z,53.07
2018-03-19T08:42:06.755Z,52.95
2018-03-19T08:43:06.481Z,52.86
2018-03-19T08:44:59.813Z,54.27
2018-03-19T08:45:59.740Z,54.37
2018-03-19T08:47:53.058Z,53.33
2018-03-19T08:48:52.984Z,53.23
2018-03-19T08:50:46.299Z,54.46
2018-03-19T08:51:46.240Z,54.84
2018-03-19T08:53:39.540Z,54.65
2018-03-19T08:54:39.494Z,54.46
2018-03-19T08:56:32.826Z,54.37
2018-03-19T08:57:32.749Z,54.18
2018-03-19T08:59:26.119Z,53.52
2018-03-19T09:00:26.001Z,54.27
2018-03-19T09:02:19.305Z,54.37
2018-03-19T09:03:19.294Z,54.55
2018-03-19T09:05:12.540Z,54.37
2018-03-19T09:06:12.489Z,53.99
2018-03-19T09:08:05.953Z,54.46
2018-03-19T09:09:05.745Z,54.25
2018-03-19T09:10:59.039Z,55.31
2018-03-19T09:11:59.008Z,55.60
2018-03-19T09:13:52.295Z,55.60
2018-03-19T09:14:52.242Z,54.55
2018-03-19T09:16:45.567Z,53.99
2018-03-19T09:17:45.502Z,53.70
2018-03-19T09:19:38.798Z,53.14
2018-03-19T09:20:38.755Z,54.11
2018-03-19T09:22:32.075Z,53.80
2018-03-19T09:23:31.996Z,53.80
2018-03-19T09:25:25.292Z,53.55
2018-03-19T09:26:25.255Z,53.55
2018-03-19T09:28:18.589Z,53.17
2018-03-19T09:29:18.504Z,53.36
2018-03-19T09:31:11.864Z,52.03
2018-03-19T09:32:11.754Z,52.41
2018-03-19T09:34:05.062Z,53.80
2018-03-19T09:35:05.067Z,54.39
2018-03-19T09:36:58.322Z,53.74
2018-03-19T09:37:58.281Z,53.36
2018-03-19T09:39:51.614Z,51.87
2018-03-19T09:40:51.538Z,51.58
2018-03-19T09:42:44.851Z,51.53
2018-03-19T09:43:44.781Z,52.10
2018-03-19T09:45:38.083Z,53.64
2018-03-19T09:46:38.053Z,52.69
2018-03-19T09:48:31.422Z,52.60
2018-03-19T09:49:31.296Z,52.60
2018-03-19T09:51:24.593Z,53.07
2018-03-19T09:52:24.545Z,53.17
2018-03-19T09:54:17.867Z,51.87
2018-03-19T09:55:17.801Z,51.20
2018-03-19T09:57:11.291Z,50.90
2018-03-19T09:58:11.180Z,51.18
2018-03-19T10:00:04.481Z,51.53
2018-03-19T10:01:04.425Z,52.98
2018-03-19T10:02:57.751Z,51.84
2018-03-19T10:03:57.671Z,51.84
2018-03-19T10:05:51.004Z,51.93
2018-03-19T10:06:50.931Z,52.03
2018-03-19T10:08:44.300Z,52.06
2018-03-19T10:09:44.207Z,51.87
2018-03-19T10:11:37.496Z,51.20
2018-03-19T10:12:37.445Z,49.76
2018-03-19T10:14:30.774Z,50.92
2018-03-19T10:15:30.725Z,50.99
2018-03-19T10:17:24.217Z,51.49
2018-03-19T10:18:24.186Z,50.33
2018-03-19T10:20:18.485Z,50.42
2018-03-19T10:21:18.432Z,50.52
2018-03-19T10:23:11.736Z,51.56
2018-03-19T10:24:11.693Z,51.01
2018-03-19T10:26:05.000Z,50.35
2018-03-19T10:27:04.948Z,49.69
2018-03-19T10:28:58.254Z,49.41
2018-03-19T10:29:58.200Z,49.15
2018-03-19T10:31:51.627Z,48.20
2018-03-19T10:32:51.504Z,48.01
2018-03-19T10:34:44.831Z,48.10
2018-03-19T10:35:44.771Z,48.13
2018-03-19T10:37:38.060Z,47.56
2018-03-19T10:38:38.067Z,47.16
2018-03-19T10:40:32.477Z,48.29
2018-03-19T10:41:32.367Z,47.44
2018-03-19T10:43:25.704Z,48.39
2018-03-19T10:44:25.629Z,47.44
2018-03-19T10:46:18.981Z,47.61
2018-03-19T10:47:18.916Z,48.74
2018-03-19T10:49:12.297Z,49.81
2018-03-19T10:50:12.202Z,48.58
2018-03-19T10:52:05.601Z,48.49
2018-03-19T10:53:05.460Z,47.63
2018-03-19T10:54:58.823Z,48.01
2018-03-19T10:55:58.736Z,47.18
2018-03-19T10:57:52.049Z,46.14
2018-03-19T10:58:52.000Z,45.86
2018-03-19T11:00:46.312Z,45.57
2018-03-19T11:01:46.264Z,47.11
2018-03-19T11:03:39.581Z,45.03
2018-03-19T11:04:39.521Z,44.29
2018-03-19T11:06:32.926Z,42.85
2018-03-19T11:07:32.784Z,43.04
2018-03-19T11:09:27.087Z,43.24
2018-03-19T11:10:27.074Z,42.79
2018-03-19T11:12:20.488Z,40.94
2018-03-19T11:13:20.327Z,39.87
2018-03-19T11:15:13.761Z,38.20
2018-03-19T11:16:13.596Z,37.44
2018-03-19T11:18:06.920Z,36.53
2018-03-19T11:19:06.879Z,35.29
2018-03-19T11:21:00.191Z,34.07
2018-03-19T11:22:00.159Z,33.31
2018-03-19T11:23:53.582Z,33.14
2018-03-19T11:24:53.424Z,32.18
2018-03-19T11:26:46.760Z,31.15
2018-03-19T11:27:46.723Z,30.77
2018-03-19T11:29:40.048Z,29.08
2018-03-19T11:30:40.013Z,28.43
2018-03-19T11:32:33.334Z,27.00
2018-03-19T11:33:33.287Z,26.31
2018-03-19T11:35:26.613Z,27.90
2018-03-19T11:36:26.584Z,29.12
2018-03-19T11:38:20.044Z,29.93
2018-03-19T11:39:19.868Z,28.89
2018-03-19T11:41:13.238Z,26.73
2018-03-19T11:42:13.158Z,26.42
2018-03-19T11:44:06.487Z,26.44
2018-03-19T11:45:06.457Z,25.77
2018-03-19T11:46:59.766Z,25.61
2018-03-19T11:47:59.850Z,27.91
2018-03-19T11:49:53.094Z,28.25
2018-03-19T11:50:53.024Z,29.58
2018-03-19T11:52:46.338Z,30.30
2018-03-19T11:53:46.313Z,32.37
2018-03-19T11:55:39.667Z,33.45
2018-03-19T11:56:39.619Z,32.78
2018-03-19T11:58:32.934Z,32.40
2018-03-19T11:59:32.890Z,32.78
2018-03-19T12:01:26.317Z,31.01
2018-03-19T12:02:26.262Z,30.52
2018-03-19T12:04:19.570Z,30.99
2018-03-19T12:05:19.578Z,31.47
2018-03-19T12:07:12.888Z,31.09
2018-03-19T12:08:12.844Z,31.37
2018-03-19T12:10:06.258Z,32.24
2018-03-19T12:11:06.197Z,32.23
2018-03-19T12:12:59.615Z,31.98
2018-03-19T12:13:59.468Z,31.50
2018-03-19T12:15:52.815Z,30.39
2018-03-19T12:16:52.747Z,28.78
2018-03-19T12:18:46.154Z,27.95
2018-03-19T12:19:46.079Z,26.82
2018-03-19T12:21:39.419Z,25.12
2018-03-19T12:22:39.375Z,25.42
2018-03-19T12:24:32.690Z,22.05
2018-03-19T12:25:32.661Z,23.28
2018-03-19T12:27:26.034Z,23.93
2018-03-19T12:28:25.956Z,24.96
2018-03-19T12:30:19.323Z,26.76
2018-03-19T12:31:19.321Z,27.08
2018-03-19T12:33:12.648Z,26.25
2018-03-19T12:34:12.657Z,25.32
2018-03-19T12:36:05.953Z,22.94
2018-03-19T12:37:05.888Z,22.80
2018-03-19T12:38:59.225Z,23.74
2018-03-19T12:39:59.208Z,24.11
2018-03-19T12:41:52.547Z,26.82
2018-03-19T12:42:52.491Z,25.79
2018-03-19T12:44:45.818Z,23.13
2018-03-19T12:45:45.779Z,22.75
2018-03-19T12:47:39.197Z,20.83
2018-03-19T12:48:39.074Z,21.74
2018-03-19T12:50:33.404Z,24.02
2018-03-19T12:51:33.368Z,24.97
2018-03-19T12:53:26.727Z,25.49
2018-03-19T12:54:26.678Z,24.18
2018-03-19T12:56:20.017Z,21.89
2018-03-19T12:57:19.966Z,21.61
2018-03-19T12:59:13.317Z,21.12
2018-03-19T13:00:13.270Z,21.17
2018-03-19T13:02:06.608Z,24.89
2018-03-19T13:03:06.552Z,25.08
2018-03-19T13:04:59.922Z,25.41
2018-03-19T13:05:59.840Z,26.76
2018-03-19T13:07:53.166Z,26.01
2018-03-19T13:08:53.138Z,25.34
2018-03-19T13:10:46.484Z,25.71
2018-03-19T13:11:46.426Z,26.93
2018-03-19T13:13:39.774Z,28.74
2018-03-19T13:14:39.708Z,28.36
2018-03-19T13:16:33.032Z,27.98
2018-03-19T13:17:32.984Z,27.98
2018-03-19T13:19:26.358Z,28.01
2018-03-19T13:20:26.274Z,26.77
2018-03-19T13:22:19.618Z,26.12
2018-03-19T13:23:19.589Z,25.84
2018-03-19T13:25:12.909Z,25.10
2018-03-19T13:26:12.857Z,23.86
2018-03-19T13:28:06.197Z,24.30
2018-03-19T13:29:06.236Z,25.04
2018-03-19T13:30:59.504Z,28.72
2018-03-19T13:31:59.420Z,29.30
2018-03-19T13:33:53.055Z,27.79
2018-03-19T13:34:52.800Z,27.79
2018-03-19T13:36:46.132Z,28.75
2018-03-19T13:37:46.077Z,27.80
2018-03-19T13:39:39.405Z,27.34
2018-03-19T13:40:39.370Z,26.21
2018-03-19T13:42:32.668Z,26.43
2018-03-19T13:43:32.646Z,25.10
2018-03-19T13:45:26.000Z,24.35
2018-03-19T13:46:25.958Z,22.83
2018-03-19T13:48:19.247Z,22.14
2018-03-19T13:49:19.220Z,22.05
2018-03-19T13:51:12.683Z,23.28
2018-03-19T13:52:12.515Z,23.94
2018-03-19T13:54:05.826Z,26.22
2018-03-19T13:55:05.803Z,26.82
2018-03-19T13:56:59.126Z,30.52
2018-03-19T13:57:59.072Z,31.09
2018-03-19T13:59:52.532Z,31.88
2018-03-19T14:00:52.357Z,30.83
2018-03-19T14:02:45.690Z,31.10
2018-03-19T14:03:45.655Z,30.80
2018-03-19T14:05:38.993Z,31.87
2018-03-19T14:06:38.911Z,32.06
2018-03-19T14:08:32.387Z,32.23
2018-03-19T14:09:32.213Z,32.82
2018-03-19T14:11:25.645Z,32.32
2018-03-19T14:12:25.493Z,32.51
2018-03-19T14:14:18.796Z,32.59
2018-03-19T14:15:18.766Z,33.34
2018-03-19T14:17:12.215Z,34.88
2018-03-19T14:18:12.070Z,34.48
2018-03-19T14:20:05.388Z,35.14
2018-03-19T14:21:05.330Z,35.05
2018-03-19T14:22:58.667Z,36.38
2018-03-19T14:23:58.612Z,35.54
2018-03-19T14:25:51.917Z,34.78
2018-03-19T14:26:51.878Z,34.89
2018-03-19T14:28:45.223Z,34.76
2018-03-19T14:29:45.161Z,34.95
2018-03-19T14:31:38.473Z,35.81
2018-03-19T14:32:38.437Z,36.28
2018-03-19T14:34:31.765Z,36.58
2018-03-19T14:35:31.712Z,36.28
2018-03-19T14:37:25.031Z,36.30
2018-03-19T14:38:25.014Z,35.52
2018-03-19T14:40:18.301Z,35.35
2018-03-19T14:41:18.270Z,34.89
2018-03-19T14:43:11.673Z,34.40
2018-03-19T14:44:11.529Z,35.06
2018-03-19T14:46:04.946Z,35.27
2018-03-19T14:47:04.793Z,34.97
2018-03-19T14:48:58.112Z,35.61
2018-03-19T14:49:58.076Z,35.42
2018-03-19T14:51:51.433Z,35.52
2018-03-19T14:52:51.379Z,35.54
2018-03-19T14:54:44.663Z,35.08
2018-03-19T14:55:44.620Z,34.21
2018-03-19T14:57:37.958Z,34.02
2018-03-19T14:58:37.897Z,33.73
2018-03-19T15:00:31.296Z,34.76
2018-03-19T15:01:31.171Z,35.16
2018-03-19T15:03:24.522Z,35.35
2018-03-19T15:04:24.452Z,34.86
2018-03-19T15:06:17.755Z,35.52
2018-03-19T15:07:17.711Z,35.52
2018-03-19T15:09:12.105Z,36.66
2018-03-19T15:10:11.964Z,36.83
2018-03-19T15:12:05.281Z,37.52
2018-03-19T15:13:05.238Z,37.59
2018-03-19T15:14:58.577Z,37.50
2018-03-19T15:15:58.513Z,37.61
2018-03-19T15:17:51.901Z,37.52
2018-03-19T15:18:51.783Z,37.52
2018-03-19T15:20:45.126Z,36.74
2018-03-19T15:21:45.064Z,37.12
2018-03-19T15:23:38.470Z,37.23
2018-03-19T15:24:38.438Z,37.33
2018-03-19T15:26:31.769Z,37.52
2018-03-19T15:27:31.691Z,37.69
2018-03-19T15:29:25.046Z,38.45
2018-03-19T15:30:24.983Z,38.92
2018-03-19T15:32:18.270Z,38.45
2018-03-19T15:33:18.227Z,38.35
2018-03-19T15:35:11.584Z,38.82
2018-03-19T15:36:11.516Z,38.92
2018-03-19T15:38:04.794Z,39.11
2018-03-19T15:39:04.756Z,39.49
2018-03-19T15:40:58.105Z,39.01
2018-03-19T15:41:58.016Z,39.01
2018-03-19T15:43:51.396Z,38.92
2018-03-19T15:44:51.301Z,39.68
2018-03-19T15:46:44.619Z,39.97
2018-03-19T15:47:44.568Z,40.14
2018-03-19T15:49:37.852Z,40.25
2018-03-19T15:50:37.851Z,39.87
2018-03-19T15:52:31.293Z,38.90
2018-03-19T15:53:31.100Z,38.90
2018-03-19T15:55:24.424Z,38.54
2018-03-19T15:56:24.386Z,39.11
2018-03-19T15:58:17.717Z,39.68
2018-03-19T15:59:17.653Z,39.21
2018-03-19T16:01:11.124Z,39.30
2018-03-19T16:02:10.922Z,38.73
2018-03-19T16:04:04.228Z,39.00
2018-03-19T16:05:04.184Z,39.47
2018-03-19T16:06:57.528Z,39.28
2018-03-19T16:07:57.477Z,39.95
2018-03-19T16:09:50.918Z,39.66
2018-03-19T16:10:50.793Z,39.57
2018-03-19T16:12:44.102Z,39.57
2018-03-19T16:13:44.071Z,39.66
2018-03-19T16:15:37.363Z,39.36
2018-03-19T16:16:37.323Z,39.73
2018-03-19T16:18:30.664Z,39.76
2018-03-19T16:19:30.567Z,39.76
2018-03-19T16:21:23.898Z,40.14
2018-03-19T16:22:23.848Z,39.95
2018-03-19T16:24:17.144Z,39.83
2018-03-19T16:25:17.102Z,39.83
2018-03-19T16:27:10.622Z,40.21
2018-03-19T16:28:10.417Z,39.92
2018-03-19T16:30:03.754Z,40.78
2018-03-19T16:31:03.697Z,40.69
2018-03-19T16:32:56.537Z,41.06
2018-03-19T16:33:56.481Z,41.25
2018-03-19T16:35:49.755Z,41.44
2018-03-19T16:36:49.855Z,41.89
2018-03-19T16:38:43.052Z,42.30
2018-03-19T16:39:42.990Z,42.08
2018-03-19T16:41:36.283Z,42.01
2018-03-19T16:42:36.247Z,42.11
2018-03-19T16:44:29.576Z,42.11
2018-03-19T16:45:29.506Z,41.89
2018-03-19T16:47:22.825Z,42.27
2018-03-19T16:48:22.757Z,42.18
2018-03-19T16:50:16.079Z,42.94
2018-03-19T16:51:16.049Z,43.23
2018-03-19T16:53:09.161Z,43.41
2018-03-19T16:54:09.082Z,43.70
2018-03-19T16:56:02.397Z,43.88
2018-03-19T16:57:02.348Z,43.98
2018-03-19T16:58:55.658Z,43.98
2018-03-19T16:59:55.617Z,43.79
2018-03-19T17:01:48.938Z,43.98
2018-03-19T17:02:48.858Z,44.17
2018-03-19T17:04:42.172Z,44.53
2018-03-19T17:05:42.134Z,44.06
2018-03-19T17:07:35.415Z,44.53
2018-03-19T17:08:35.376Z,44.72
2018-03-19T17:10:28.838Z,44.91
2018-03-19T17:11:28.640Z,44.81
2018-03-19T17:13:21.988Z,44.43
2018-03-19T17:14:21.880Z,44.91
2018-03-19T17:16:15.243Z,45.10
2018-03-19T17:17:15.139Z,45.57
2018-03-19T17:19:08.625Z,45.48
2018-03-19T17:20:08.488Z,45.48
2018-03-19T17:22:01.804Z,45.95
2018-03-19T17:23:01.756Z,46.42
2018-03-19T17:24:55.069Z,45.76
2018-03-19T17:25:55.009Z,46.33
2018-03-19T17:27:48.428Z,45.76
2018-03-19T17:28:48.269Z,45.48
2018-03-19T17:30:41.685Z,46.21
2018-03-19T17:31:41.554Z,46.33
2018-03-19T17:33:34.884Z,46.02
2018-03-19T17:34:34.813Z,46.31
2018-03-19T17:36:28.205Z,47.06
2018-03-19T17:37:28.119Z,46.88
2018-03-19T17:39:21.405Z,47.16
2018-03-19T17:40:21.344Z,46.97
2018-03-19T17:42:14.686Z,47.25
2018-03-19T17:43:14.599Z,47.25
2018-03-19T17:45:07.903Z,47.25
2018-03-19T17:46:07.847Z,48.10
2018-03-19T17:48:01.194Z,47.53
2018-03-19T17:49:01.122Z,47.44
2018-03-19T17:50:54.409Z,47.63
2018-03-19T17:51:54.357Z,47.72
2018-03-19T17:53:47.733Z,47.91
2018-03-19T17:54:47.659Z,47.53
2018-03-19T17:56:40.945Z,48.01
2018-03-19T17:57:40.888Z,47.99
2018-03-19T17:59:34.184Z,48.10
2018-03-19T18:00:34.141Z,47.82
2018-03-19T18:02:27.480Z,48.01
2018-03-19T18:03:27.410Z,48.08
2018-03-19T18:05:20.742Z,48.36
2018-03-19T18:06:20.677Z,48.27
2018-03-19T18:08:13.991Z,48.27
2018-03-19T18:09:13.938Z,48.18
2018-03-19T18:11:06.849Z,48.84
2018-03-19T18:12:06.817Z,48.55
2018-03-19T18:14:00.230Z,48.65
2018-03-19T18:15:00.083Z,49.60
2018-03-19T18:16:53.389Z,49.03
2018-03-19T18:17:53.331Z,48.65
2018-03-19T18:19:46.642Z,48.55
2018-03-19T18:20:46.582Z,48.36
2018-03-19T18:22:40.075Z,48.36
2018-03-19T18:23:39.897Z,48.36
2018-03-19T18:25:33.206Z,48.27
2018-03-19T18:26:33.135Z,48.18
2018-03-19T18:28:26.506Z,48.27
2018-03-19T18:29:26.411Z,48.36
2018-03-19T18:31:19.848Z,47.99
2018-03-19T18:32:19.685Z,48.36
2018-03-19T18:34:12.995Z,48.18
2018-03-19T18:35:12.957Z,48.65